sensor_id;sensor_type;location;lat;lon;timestamp;P1;durP1;ratioP1;P2;durP2;ratioP2
8857;SDS011;4465;50.904;4.696;2023-05-29T00:00:24;15.60;;;6.03;;
8857;SDS011;4465;50.904;4.696;2023-05-29T00:02:54;16.05;;;4.78;;
8857;SDS011;4465;50.904;4.696;2023-05-29T00:05:20;15.00;;;5.93;;
8857;SDS011;4465;50.904;4.696;2023-05-29T00:07:46;10.75;;;4.90;;
8857;SDS011;4465;50.904;4.696;2023-05-29T00:10:12;11.18;;;4.90;;
8857;SDS011;4465;50.904;4.696;2023-05-29T00:12:38;11.45;;;5.70;;
8857;SDS011;4465;50.904;4.696;2023-05-29T00:15:08;12.23;;;5.13;;
8857;SDS011;4465;50.904;4.696;2023-05-29T00:17:39;14.60;;;5.20;;
8857;SDS011;4465;50.904;4.696;2023-05-29T00:20:08;12.52;;;5.50;;
8857;SDS011;4465;50.904;4.696;2023-05-29T00:22:36;14.70;;;5.35;;
8857;SDS011;4465;50.904;4.696;2023-05-29T00:25:05;14.85;;;5.50;;
8857;SDS011;4465;50.904;4.696;2023-05-29T00:27:34;16.13;;;6.32;;
8857;SDS011;4465;50.904;4.696;2023-05-29T00:30:01;12.73;;;5.47;;
8857;SDS011;4465;50.904;4.696;2023-05-29T00:34:54;14.57;;;5.70;;
8857;SDS011;4465;50.904;4.696;2023-05-29T00:37:21;14.18;;;6.05;;
8857;SDS011;4465;50.904;4.696;2023-05-29T00:39:49;9.93;;;5.65;;
8857;SDS011;4465;50.904;4.696;2023-05-29T00:42:18;16.63;;;6.35;;
8857;SDS011;4465;50.904;4.696;2023-05-29T00:44:44;15.40;;;6.40;;
8857;SDS011;4465;50.904;4.696;2023-05-29T00:47:11;11.75;;;5.50;;
8857;SDS011;4465;50.904;4.696;2023-05-29T00:49:37;17.40;;;6.30;;
8857;SDS011;4465;50.904;4.696;2023-05-29T00:52:05;12.45;;;5.50;;
8857;SDS011;4465;50.904;4.696;2023-05-29T00:54:35;19.00;;;6.18;;
8857;SDS011;4465;50.904;4.696;2023-05-29T00:57:02;9.90;;;5.37;;
8857;SDS011;4465;50.904;4.696;2023-05-29T00:59:30;11.25;;;5.60;;
8857;SDS011;4465;50.904;4.696;2023-05-29T01:01:58;15.20;;;6.20;;
8857;SDS011;4465;50.904;4.696;2023-05-29T01:04:27;17.83;;;6.65;;
8857;SDS011;4465;50.904;4.696;2023-05-29T01:07:02;19.15;;;6.28;;
8857;SDS011;4465;50.904;4.696;2023-05-29T01:09:34;13.85;;;6.50;;
8857;SDS011;4465;50.904;4.696;2023-05-29T01:17:43;14.90;;;5.43;;
8857;SDS011;4465;50.904;4.696;2023-05-29T01:28:21;18.20;;;6.53;;
8857;SDS011;4465;50.904;4.696;2023-05-29T01:30:51;14.60;;;6.03;;
8857;SDS011;4465;50.904;4.696;2023-05-29T01:33:19;18.30;;;6.40;;
8857;SDS011;4465;50.904;4.696;2023-05-29T01:35:45;12.63;;;6.82;;
8857;SDS011;4465;50.904;4.696;2023-05-29T01:38:11;15.77;;;6.63;;
8857;SDS011;4465;50.904;4.696;2023-05-29T01:40:37;15.25;;;5.95;;
8857;SDS011;4465;50.904;4.696;2023-05-29T01:43:03;15.40;;;6.55;;
8857;SDS011;4465;50.904;4.696;2023-05-29T01:45:30;14.27;;;6.77;;
8857;SDS011;4465;50.904;4.696;2023-05-29T01:47:56;21.20;;;6.93;;
8857;SDS011;4465;50.904;4.696;2023-05-29T01:50:27;22.42;;;7.32;;
8857;SDS011;4465;50.904;4.696;2023-05-29T01:52:59;15.82;;;6.45;;
8857;SDS011;4465;50.904;4.696;2023-05-29T01:55:25;15.02;;;6.68;;
8857;SDS011;4465;50.904;4.696;2023-05-29T01:57:51;17.05;;;7.00;;
8857;SDS011;4465;50.904;4.696;2023-05-29T02:00:17;17.85;;;6.47;;
8857;SDS011;4465;50.904;4.696;2023-05-29T02:02:44;19.38;;;6.65;;
8857;SDS011;4465;50.904;4.696;2023-05-29T02:05:10;28.00;;;8.57;;
8857;SDS011;4465;50.904;4.696;2023-05-29T02:07:39;17.80;;;6.68;;
8857;SDS011;4465;50.904;4.696;2023-05-29T02:10:08;13.57;;;6.18;;
8857;SDS011;4465;50.904;4.696;2023-05-29T02:12:34;16.60;;;6.32;;
8857;SDS011;4465;50.904;4.696;2023-05-29T02:15:05;15.93;;;6.18;;
8857;SDS011;4465;50.904;4.696;2023-05-29T02:17:34;21.30;;;6.45;;
8857;SDS011;4465;50.904;4.696;2023-05-29T02:20:00;19.30;;;7.18;;
8857;SDS011;4465;50.904;4.696;2023-05-29T02:22:27;20.73;;;6.20;;
8857;SDS011;4465;50.904;4.696;2023-05-29T02:24:52;14.23;;;5.93;;
8857;SDS011;4465;50.904;4.696;2023-05-29T02:27:18;16.55;;;6.10;;
8857;SDS011;4465;50.904;4.696;2023-05-29T02:29:45;16.20;;;5.73;;
8857;SDS011;4465;50.904;4.696;2023-05-29T02:32:11;15.00;;;6.15;;
8857;SDS011;4465;50.904;4.696;2023-05-29T02:34:37;13.80;;;5.60;;
8857;SDS011;4465;50.904;4.696;2023-05-29T02:37:05;20.02;;;6.30;;
8857;SDS011;4465;50.904;4.696;2023-05-29T02:39:31;16.33;;;6.53;;
8857;SDS011;4465;50.904;4.696;2023-05-29T02:41:57;15.65;;;5.47;;
8857;SDS011;4465;50.904;4.696;2023-05-29T02:44:23;17.70;;;5.88;;
8857;SDS011;4465;50.904;4.696;2023-05-29T02:46:49;16.45;;;5.55;;
8857;SDS011;4465;50.904;4.696;2023-05-29T02:49:15;15.90;;;5.00;;
8857;SDS011;4465;50.904;4.696;2023-05-29T02:51:41;16.80;;;5.15;;
8857;SDS011;4465;50.904;4.696;2023-05-29T02:54:06;14.50;;;4.68;;
8857;SDS011;4465;50.904;4.696;2023-05-29T02:56:37;14.95;;;5.20;;
8857;SDS011;4465;50.904;4.696;2023-05-29T02:59:05;14.10;;;4.47;;
8857;SDS011;4465;50.904;4.696;2023-05-29T03:01:32;15.73;;;4.95;;
8857;SDS011;4465;50.904;4.696;2023-05-29T03:04:02;13.07;;;4.78;;
8857;SDS011;4465;50.904;4.696;2023-05-29T03:06:28;13.00;;;4.70;;
8857;SDS011;4465;50.904;4.696;2023-05-29T03:08:54;14.38;;;4.93;;
8857;SDS011;4465;50.904;4.696;2023-05-29T03:11:20;12.98;;;4.57;;
8857;SDS011;4465;50.904;4.696;2023-05-29T03:13:50;13.27;;;4.13;;
8857;SDS011;4465;50.904;4.696;2023-05-29T03:16:16;16.50;;;4.03;;
8857;SDS011;4465;50.904;4.696;2023-05-29T03:18:42;21.42;;;4.63;;
8857;SDS011;4465;50.904;4.696;2023-05-29T03:21:08;15.48;;;4.15;;
8857;SDS011;4465;50.904;4.696;2023-05-29T03:23:34;16.95;;;4.15;;
8857;SDS011;4465;50.904;4.696;2023-05-29T03:26:01;14.95;;;3.70;;
8857;SDS011;4465;50.904;4.696;2023-05-29T03:28:27;12.32;;;4.10;;
8857;SDS011;4465;50.904;4.696;2023-05-29T03:30:53;16.35;;;3.90;;
8857;SDS011;4465;50.904;4.696;2023-05-29T03:33:22;15.57;;;4.03;;
8857;SDS011;4465;50.904;4.696;2023-05-29T03:35:50;17.50;;;4.28;;
8857;SDS011;4465;50.904;4.696;2023-05-29T03:38:19;13.15;;;3.85;;
8857;SDS011;4465;50.904;4.696;2023-05-29T03:40:45;17.35;;;4.55;;
8857;SDS011;4465;50.904;4.696;2023-05-29T03:43:10;16.13;;;3.88;;
8857;SDS011;4465;50.904;4.696;2023-05-29T03:45:36;11.85;;;4.03;;
8857;SDS011;4465;50.904;4.696;2023-05-29T03:48:02;13.15;;;3.65;;
8857;SDS011;4465;50.904;4.696;2023-05-29T03:50:31;11.48;;;3.40;;
8857;SDS011;4465;50.904;4.696;2023-05-29T03:53:02;18.88;;;3.88;;
8857;SDS011;4465;50.904;4.696;2023-05-29T03:55:28;15.48;;;3.65;;
8857;SDS011;4465;50.904;4.696;2023-05-29T03:57:53;12.73;;;3.42;;
8857;SDS011;4465;50.904;4.696;2023-05-29T04:00:24;12.60;;;3.42;;
8857;SDS011;4465;50.904;4.696;2023-05-29T04:02:50;16.42;;;3.30;;
8857;SDS011;4465;50.904;4.696;2023-05-29T04:05:19;17.95;;;4.30;;
8857;SDS011;4465;50.904;4.696;2023-05-29T04:07:47;13.27;;;3.78;;
8857;SDS011;4465;50.904;4.696;2023-05-29T04:10:17;12.40;;;3.25;;
8857;SDS011;4465;50.904;4.696;2023-05-29T04:12:43;13.45;;;3.10;;
8857;SDS011;4465;50.904;4.696;2023-05-29T04:15:09;16.08;;;3.10;;
8857;SDS011;4465;50.904;4.696;2023-05-29T04:17:35;14.07;;;3.22;;
8857;SDS011;4465;50.904;4.696;2023-05-29T04:20:01;16.42;;;3.17;;
8857;SDS011;4465;50.904;4.696;2023-05-29T04:22:33;10.13;;;2.75;;
8857;SDS011;4465;50.904;4.696;2023-05-29T04:25:00;11.57;;;3.17;;
8857;SDS011;4465;50.904;4.696;2023-05-29T04:27:27;14.70;;;2.73;;
8857;SDS011;4465;50.904;4.696;2023-05-29T04:29:53;16.42;;;3.13;;
8857;SDS011;4465;50.904;4.696;2023-05-29T04:32:21;14.82;;;3.83;;
8857;SDS011;4465;50.904;4.696;2023-05-29T04:34:47;16.75;;;4.22;;
8857;SDS011;4465;50.904;4.696;2023-05-29T04:37:13;17.85;;;3.40;;
8857;SDS011;4465;50.904;4.696;2023-05-29T04:39:41;16.38;;;3.85;;
8857;SDS011;4465;50.904;4.696;2023-05-29T04:42:07;12.18;;;2.70;;
8857;SDS011;4465;50.904;4.696;2023-05-29T04:44:33;20.70;;;3.88;;
8857;SDS011;4465;50.904;4.696;2023-05-29T04:46:59;12.15;;;2.92;;
8857;SDS011;4465;50.904;4.696;2023-05-29T04:49:28;18.38;;;3.28;;
8857;SDS011;4465;50.904;4.696;2023-05-29T04:51:54;9.00;;;2.78;;
8857;SDS011;4465;50.904;4.696;2023-05-29T04:54:21;10.20;;;2.40;;
8857;SDS011;4465;50.904;4.696;2023-05-29T04:56:48;15.00;;;2.80;;
8857;SDS011;4465;50.904;4.696;2023-05-29T04:59:14;12.65;;;3.17;;
8857;SDS011;4465;50.904;4.696;2023-05-29T05:01:40;22.65;;;5.10;;
8857;SDS011;4465;50.904;4.696;2023-05-29T05:04:08;13.57;;;3.50;;
8857;SDS011;4465;50.904;4.696;2023-05-29T05:06:34;12.27;;;2.78;;
8857;SDS011;4465;50.904;4.696;2023-05-29T05:09:03;16.88;;;3.75;;
8857;SDS011;4465;50.904;4.696;2023-05-29T05:11:28;18.35;;;3.05;;
8857;SDS011;4465;50.904;4.696;2023-05-29T05:13:56;20.73;;;3.88;;
8857;SDS011;4465;50.904;4.696;2023-05-29T05:16:22;15.82;;;3.38;;
8857;SDS011;4465;50.904;4.696;2023-05-29T05:18:48;11.35;;;2.67;;
8857;SDS011;4465;50.904;4.696;2023-05-29T05:21:17;14.90;;;3.03;;
8857;SDS011;4465;50.904;4.696;2023-05-29T05:23:42;25.55;;;3.47;;
8857;SDS011;4465;50.904;4.696;2023-05-29T05:26:08;16.60;;;3.17;;
8857;SDS011;4465;50.904;4.696;2023-05-29T05:28:34;14.77;;;3.05;;
8857;SDS011;4465;50.904;4.696;2023-05-29T05:31:01;17.38;;;2.97;;
8857;SDS011;4465;50.904;4.696;2023-05-29T05:33:29;12.48;;;2.85;;
8857;SDS011;4465;50.904;4.696;2023-05-29T05:35:55;12.00;;;2.67;;
8857;SDS011;4465;50.904;4.696;2023-05-29T05:38:21;15.13;;;3.50;;
8857;SDS011;4465;50.904;4.696;2023-05-29T05:40:47;20.10;;;4.53;;
8857;SDS011;4465;50.904;4.696;2023-05-29T05:43:15;18.60;;;2.85;;
8857;SDS011;4465;50.904;4.696;2023-05-29T05:45:41;13.88;;;3.13;;
8857;SDS011;4465;50.904;4.696;2023-05-29T05:48:08;15.73;;;3.37;;
8857;SDS011;4465;50.904;4.696;2023-05-29T05:50:37;15.77;;;2.95;;
8857;SDS011;4465;50.904;4.696;2023-05-29T05:53:03;17.20;;;3.28;;
8857;SDS011;4465;50.904;4.696;2023-05-29T05:55:29;19.42;;;4.00;;
8857;SDS011;4465;50.904;4.696;2023-05-29T05:57:57;11.38;;;2.75;;
8857;SDS011;4465;50.904;4.696;2023-05-29T06:00:23;19.65;;;3.08;;
8857;SDS011;4465;50.904;4.696;2023-05-29T06:02:51;16.00;;;3.63;;
8857;SDS011;4465;50.904;4.696;2023-05-29T06:05:17;20.00;;;3.50;;
8857;SDS011;4465;50.904;4.696;2023-05-29T06:07:43;13.90;;;3.28;;
8857;SDS011;4465;50.904;4.696;2023-05-29T06:10:09;20.70;;;3.67;;
8857;SDS011;4465;50.904;4.696;2023-05-29T06:12:35;13.13;;;3.17;;
8857;SDS011;4465;50.904;4.696;2023-05-29T06:15:01;16.27;;;3.20;;
8857;SDS011;4465;50.904;4.696;2023-05-29T06:17:29;19.02;;;3.15;;
8857;SDS011;4465;50.904;4.696;2023-05-29T06:19:55;18.38;;;3.95;;
8857;SDS011;4465;50.904;4.696;2023-05-29T06:22:21;16.70;;;3.50;;
8857;SDS011;4465;50.904;4.696;2023-05-29T06:24:47;11.90;;;3.00;;
8857;SDS011;4465;50.904;4.696;2023-05-29T06:27:16;13.07;;;3.40;;
8857;SDS011;4465;50.904;4.696;2023-05-29T06:29:45;16.20;;;3.35;;
8857;SDS011;4465;50.904;4.696;2023-05-29T06:32:11;17.00;;;3.50;;
8857;SDS011;4465;50.904;4.696;2023-05-29T06:34:39;15.77;;;3.08;;
8857;SDS011;4465;50.904;4.696;2023-05-29T06:37:05;12.88;;;2.72;;
8857;SDS011;4465;50.904;4.696;2023-05-29T06:39:31;12.75;;;2.80;;
8857;SDS011;4465;50.904;4.696;2023-05-29T06:41:57;13.50;;;3.47;;
8857;SDS011;4465;50.904;4.696;2023-05-29T06:44:23;17.98;;;3.25;;
8857;SDS011;4465;50.904;4.696;2023-05-29T06:46:52;15.80;;;3.47;;
8857;SDS011;4465;50.904;4.696;2023-05-29T06:49:19;15.15;;;2.72;;
8857;SDS011;4465;50.904;4.696;2023-05-29T06:51:45;9.88;;;2.97;;
8857;SDS011;4465;50.904;4.696;2023-05-29T06:54:10;20.80;;;3.25;;
8857;SDS011;4465;50.904;4.696;2023-05-29T06:56:39;11.90;;;2.58;;
8857;SDS011;4465;50.904;4.696;2023-05-29T06:59:05;13.20;;;3.30;;
8857;SDS011;4465;50.904;4.696;2023-05-29T07:01:30;16.60;;;3.13;;
8857;SDS011;4465;50.904;4.696;2023-05-29T07:03:56;17.20;;;2.90;;
8857;SDS011;4465;50.904;4.696;2023-05-29T07:06:27;18.65;;;3.25;;
8857;SDS011;4465;50.904;4.696;2023-05-29T07:08:53;13.10;;;3.08;;
8857;SDS011;4465;50.904;4.696;2023-05-29T07:11:18;10.95;;;2.80;;
8857;SDS011;4465;50.904;4.696;2023-05-29T07:13:47;15.85;;;4.03;;
8857;SDS011;4465;50.904;4.696;2023-05-29T07:16:15;20.13;;;2.83;;
8857;SDS011;4465;50.904;4.696;2023-05-29T07:18:41;14.68;;;2.92;;
8857;SDS011;4465;50.904;4.696;2023-05-29T07:21:06;11.77;;;2.33;;
8857;SDS011;4465;50.904;4.696;2023-05-29T07:23:32;12.48;;;3.17;;
8857;SDS011;4465;50.904;4.696;2023-05-29T07:26:00;13.55;;;3.03;;
8857;SDS011;4465;50.904;4.696;2023-05-29T07:28:26;12.60;;;3.00;;
8857;SDS011;4465;50.904;4.696;2023-05-29T07:30:54;11.70;;;2.70;;
8857;SDS011;4465;50.904;4.696;2023-05-29T07:33:20;10.30;;;2.40;;
8857;SDS011;4465;50.904;4.696;2023-05-29T07:35:47;12.07;;;2.65;;
8857;SDS011;4465;50.904;4.696;2023-05-29T07:38:15;17.37;;;3.00;;
8857;SDS011;4465;50.904;4.696;2023-05-29T07:40:44;8.95;;;2.15;;
8857;SDS011;4465;50.904;4.696;2023-05-29T07:43:10;15.00;;;2.72;;
8857;SDS011;4465;50.904;4.696;2023-05-29T07:45:40;13.80;;;2.53;;
8857;SDS011;4465;50.904;4.696;2023-05-29T07:48:06;11.00;;;2.53;;
8857;SDS011;4465;50.904;4.696;2023-05-29T07:50:34;9.52;;;2.42;;
8857;SDS011;4465;50.904;4.696;2023-05-29T07:53:02;15.30;;;2.63;;
8857;SDS011;4465;50.904;4.696;2023-05-29T07:55:28;10.77;;;2.60;;
8857;SDS011;4465;50.904;4.696;2023-05-29T07:57:54;10.40;;;2.53;;
8857;SDS011;4465;50.904;4.696;2023-05-29T08:00:21;9.13;;;2.50;;
8857;SDS011;4465;50.904;4.696;2023-05-29T08:02:47;12.15;;;2.53;;
8857;SDS011;4465;50.904;4.696;2023-05-29T08:05:13;8.52;;;2.97;;
8857;SDS011;4465;50.904;4.696;2023-05-29T08:07:40;13.27;;;2.63;;
8857;SDS011;4465;50.904;4.696;2023-05-29T08:10:07;11.90;;;2.42;;
8857;SDS011;4465;50.904;4.696;2023-05-29T08:12:33;14.50;;;3.40;;
8857;SDS011;4465;50.904;4.696;2023-05-29T08:15:01;14.38;;;3.42;;
8857;SDS011;4465;50.904;4.696;2023-05-29T08:17:30;9.98;;;2.45;;
8857;SDS011;4465;50.904;4.696;2023-05-29T08:19:56;12.32;;;2.80;;
8857;SDS011;4465;50.904;4.696;2023-05-29T08:22:27;10.10;;;2.70;;
8857;SDS011;4465;50.904;4.696;2023-05-29T08:24:59;13.82;;;2.35;;
8857;SDS011;4465;50.904;4.696;2023-05-29T08:27:25;10.05;;;2.63;;
8857;SDS011;4465;50.904;4.696;2023-05-29T08:29:51;10.75;;;2.55;;
8857;SDS011;4465;50.904;4.696;2023-05-29T08:32:17;14.68;;;2.95;;
8857;SDS011;4465;50.904;4.696;2023-05-29T08:34:43;9.45;;;2.42;;
8857;SDS011;4465;50.904;4.696;2023-05-29T08:37:10;14.20;;;3.05;;
8857;SDS011;4465;50.904;4.696;2023-05-29T08:39:37;11.90;;;3.07;;
8857;SDS011;4465;50.904;4.696;2023-05-29T08:42:50;13.80;;;3.35;;
8857;SDS011;4465;50.904;4.696;2023-05-29T08:44:58;14.52;;;2.42;;
8857;SDS011;4465;50.904;4.696;2023-05-29T08:47:29;13.00;;;3.10;;
8857;SDS011;4465;50.904;4.696;2023-05-29T08:50:01;18.67;;;2.85;;
8857;SDS011;4465;50.904;4.696;2023-05-29T08:52:29;15.10;;;2.80;;
8857;SDS011;4465;50.904;4.696;2023-05-29T08:55:00;10.68;;;3.15;;
8857;SDS011;4465;50.904;4.696;2023-05-29T08:57:28;13.68;;;3.88;;
8857;SDS011;4465;50.904;4.696;2023-05-29T08:59:55;17.67;;;3.80;;
8857;SDS011;4465;50.904;4.696;2023-05-29T09:02:21;11.43;;;2.83;;
8857;SDS011;4465;50.904;4.696;2023-05-29T09:04:48;14.23;;;2.92;;
8857;SDS011;4465;50.904;4.696;2023-05-29T09:07:17;16.60;;;3.33;;
8857;SDS011;4465;50.904;4.696;2023-05-29T09:09:47;14.70;;;3.38;;
8857;SDS011;4465;50.904;4.696;2023-05-29T09:12:16;10.75;;;2.47;;
8857;SDS011;4465;50.904;4.696;2023-05-29T09:14:44;9.75;;;2.50;;
8857;SDS011;4465;50.904;4.696;2023-05-29T09:17:11;13.68;;;2.58;;
8857;SDS011;4465;50.904;4.696;2023-05-29T09:19:40;12.35;;;2.58;;
8857;SDS011;4465;50.904;4.696;2023-05-29T09:22:08;8.15;;;2.55;;
8857;SDS011;4465;50.904;4.696;2023-05-29T09:24:36;14.98;;;3.05;;
8857;SDS011;4465;50.904;4.696;2023-05-29T09:27:04;13.80;;;3.08;;
8857;SDS011;4465;50.904;4.696;2023-05-29T09:29:32;16.13;;;3.00;;
8857;SDS011;4465;50.904;4.696;2023-05-29T09:32:16;15.52;;;3.33;;
8857;SDS011;4465;50.904;4.696;2023-05-29T09:34:47;14.63;;;3.08;;
8857;SDS011;4465;50.904;4.696;2023-05-29T09:37:16;14.13;;;2.70;;
8857;SDS011;4465;50.904;4.696;2023-05-29T09:39:47;13.52;;;3.00;;
8857;SDS011;4465;50.904;4.696;2023-05-29T09:42:18;17.88;;;2.45;;
8857;SDS011;4465;50.904;4.696;2023-05-29T09:44:45;9.70;;;2.22;;
8857;SDS011;4465;50.904;4.696;2023-05-29T09:47:14;10.23;;;2.80;;
8857;SDS011;4465;50.904;4.696;2023-05-29T09:49:46;12.00;;;2.67;;
8857;SDS011;4465;50.904;4.696;2023-05-29T09:52:12;12.82;;;2.90;;
8857;SDS011;4465;50.904;4.696;2023-05-29T09:54:42;12.82;;;2.60;;
8857;SDS011;4465;50.904;4.696;2023-05-29T09:57:16;18.10;;;3.17;;
8857;SDS011;4465;50.904;4.696;2023-05-29T09:59:45;12.85;;;2.60;;
8857;SDS011;4465;50.904;4.696;2023-05-29T10:02:16;13.13;;;2.88;;
8857;SDS011;4465;50.904;4.696;2023-05-29T10:04:42;8.73;;;2.63;;
8857;SDS011;4465;50.904;4.696;2023-05-29T10:07:22;15.55;;;3.00;;
8857;SDS011;4465;50.904;4.696;2023-05-29T10:09:53;11.00;;;2.92;;
8857;SDS011;4465;50.904;4.696;2023-05-29T10:12:25;14.25;;;2.55;;
8857;SDS011;4465;50.904;4.696;2023-05-29T10:14:57;14.80;;;2.65;;
8857;SDS011;4465;50.904;4.696;2023-05-29T10:17:25;11.70;;;2.50;;
8857;SDS011;4465;50.904;4.696;2023-05-29T10:19:57;10.35;;;3.10;;
8857;SDS011;4465;50.904;4.696;2023-05-29T10:22:26;10.25;;;2.75;;
8857;SDS011;4465;50.904;4.696;2023-05-29T10:27:21;13.85;;;3.13;;
8857;SDS011;4465;50.904;4.696;2023-05-29T10:29:59;14.10;;;3.30;;
8857;SDS011;4465;50.904;4.696;2023-05-29T10:35:12;13.48;;;2.88;;
8857;SDS011;4465;50.904;4.696;2023-05-29T10:40:23;11.55;;;2.67;;
8857;SDS011;4465;50.904;4.696;2023-05-29T10:42:51;12.90;;;2.88;;
8857;SDS011;4465;50.904;4.696;2023-05-29T10:47:55;9.73;;;2.55;;
8857;SDS011;4465;50.904;4.696;2023-05-29T10:50:42;12.15;;;2.63;;
8857;SDS011;4465;50.904;4.696;2023-05-29T10:53:10;19.02;;;3.00;;
8857;SDS011;4465;50.904;4.696;2023-05-29T10:55:41;11.70;;;2.65;;
8857;SDS011;4465;50.904;4.696;2023-05-29T10:58:18;10.18;;;2.30;;
8857;SDS011;4465;50.904;4.696;2023-05-29T11:00:45;9.98;;;2.13;;
8857;SDS011;4465;50.904;4.696;2023-05-29T11:03:15;10.70;;;2.83;;
8857;SDS011;4465;50.904;4.696;2023-05-29T11:11:32;12.25;;;2.45;;
8857;SDS011;4465;50.904;4.696;2023-05-29T11:14:03;9.38;;;2.13;;
8857;SDS011;4465;50.904;4.696;2023-05-29T11:19:01;13.82;;;2.90;;
8857;SDS011;4465;50.904;4.696;2023-05-29T11:24:26;12.57;;;3.15;;
8857;SDS011;4465;50.904;4.696;2023-05-29T11:26:54;8.85;;;2.38;;
8857;SDS011;4465;50.904;4.696;2023-05-29T11:29:25;13.27;;;2.70;;
8857;SDS011;4465;50.904;4.696;2023-05-29T11:32:03;13.85;;;2.50;;
8857;SDS011;4465;50.904;4.696;2023-05-29T11:34:33;11.25;;;2.47;;
8857;SDS011;4465;50.904;4.696;2023-05-29T11:37:03;13.05;;;2.90;;
8857;SDS011;4465;50.904;4.696;2023-05-29T11:39:29;14.07;;;2.85;;
8857;SDS011;4465;50.904;4.696;2023-05-29T11:41:57;12.05;;;2.47;;
8857;SDS011;4465;50.904;4.696;2023-05-29T11:44:26;6.50;;;2.10;;
8857;SDS011;4465;50.904;4.696;2023-05-29T11:47:01;11.98;;;2.40;;
8857;SDS011;4465;50.904;4.696;2023-05-29T11:49:32;11.63;;;2.10;;
8857;SDS011;4465;50.904;4.696;2023-05-29T11:52:14;12.73;;;2.65;;
8857;SDS011;4465;50.904;4.696;2023-05-29T11:54:44;9.63;;;2.35;;
8857;SDS011;4465;50.904;4.696;2023-05-29T11:57:17;14.63;;;2.50;;
8857;SDS011;4465;50.904;4.696;2023-05-29T11:59:44;15.95;;;2.15;;
8857;SDS011;4465;50.904;4.696;2023-05-29T12:02:14;11.23;;;2.90;;
8857;SDS011;4465;50.904;4.696;2023-05-29T12:04:40;9.52;;;2.72;;
8857;SDS011;4465;50.904;4.696;2023-05-29T12:07:19;10.43;;;2.72;;
8857;SDS011;4465;50.904;4.696;2023-05-29T12:09:44;7.20;;;2.17;;
8857;SDS011;4465;50.904;4.696;2023-05-29T12:12:10;15.55;;;2.72;;
8857;SDS011;4465;50.904;4.696;2023-05-29T12:14:36;7.93;;;2.25;;
8857;SDS011;4465;50.904;4.696;2023-05-29T12:17:02;11.40;;;2.33;;
8857;SDS011;4465;50.904;4.696;2023-05-29T12:19:31;9.88;;;2.85;;
8857;SDS011;4465;50.904;4.696;2023-05-29T12:21:59;11.75;;;2.33;;
8857;SDS011;4465;50.904;4.696;2023-05-29T12:24:25;9.43;;;2.58;;
8857;SDS011;4465;50.904;4.696;2023-05-29T12:26:54;8.50;;;2.28;;
8857;SDS011;4465;50.904;4.696;2023-05-29T12:29:29;10.10;;;2.28;;
8857;SDS011;4465;50.904;4.696;2023-05-29T12:31:59;9.07;;;2.42;;
8857;SDS011;4465;50.904;4.696;2023-05-29T12:34:25;8.98;;;2.38;;
8857;SDS011;4465;50.904;4.696;2023-05-29T12:36:51;9.93;;;2.45;;
8857;SDS011;4465;50.904;4.696;2023-05-29T12:39:16;13.63;;;2.80;;
8857;SDS011;4465;50.904;4.696;2023-05-29T12:41:45;12.65;;;3.10;;
8857;SDS011;4465;50.904;4.696;2023-05-29T12:44:11;12.43;;;2.40;;
8857;SDS011;4465;50.904;4.696;2023-05-29T12:46:40;12.38;;;2.67;;
8857;SDS011;4465;50.904;4.696;2023-05-29T12:49:13;9.45;;;2.40;;
8857;SDS011;4465;50.904;4.696;2023-05-29T12:51:42;8.77;;;2.20;;
8857;SDS011;4465;50.904;4.696;2023-05-29T12:54:14;10.68;;;2.22;;
8857;SDS011;4465;50.904;4.696;2023-05-29T12:56:42;7.93;;;2.33;;
8857;SDS011;4465;50.904;4.696;2023-05-29T12:59:08;12.98;;;2.67;;
8857;SDS011;4465;50.904;4.696;2023-05-29T13:01:37;10.45;;;2.72;;
8857;SDS011;4465;50.904;4.696;2023-05-29T13:04:04;7.65;;;2.70;;
8857;SDS011;4465;50.904;4.696;2023-05-29T13:06:34;7.85;;;2.40;;
8857;SDS011;4465;50.904;4.696;2023-05-29T13:09:00;7.65;;;2.50;;
8857;SDS011;4465;50.904;4.696;2023-05-29T13:11:26;8.60;;;2.58;;
8857;SDS011;4465;50.904;4.696;2023-05-29T13:13:52;9.52;;;3.08;;
8857;SDS011;4465;50.904;4.696;2023-05-29T13:16:18;9.38;;;2.38;;
8857;SDS011;4465;50.904;4.696;2023-05-29T13:18:44;13.73;;;2.88;;
8857;SDS011;4465;50.904;4.696;2023-05-29T13:21:10;8.73;;;2.10;;
8857;SDS011;4465;50.904;4.696;2023-05-29T13:23:36;9.70;;;2.58;;
8857;SDS011;4465;50.904;4.696;2023-05-29T13:26:03;12.75;;;2.60;;
8857;SDS011;4465;50.904;4.696;2023-05-29T13:28:32;7.15;;;2.63;;
8857;SDS011;4465;50.904;4.696;2023-05-29T13:30:58;10.40;;;2.60;;
8857;SDS011;4465;50.904;4.696;2023-05-29T13:33:26;9.77;;;2.42;;
8857;SDS011;4465;50.904;4.696;2023-05-29T13:35:52;12.23;;;2.40;;
8857;SDS011;4465;50.904;4.696;2023-05-29T13:38:23;7.93;;;2.35;;
8857;SDS011;4465;50.904;4.696;2023-05-29T13:40:51;6.88;;;2.25;;
8857;SDS011;4465;50.904;4.696;2023-05-29T13:43:17;13.80;;;2.65;;
8857;SDS011;4465;50.904;4.696;2023-05-29T13:45:45;10.60;;;2.60;;
8857;SDS011;4465;50.904;4.696;2023-05-29T13:48:11;12.35;;;2.60;;
8857;SDS011;4465;50.904;4.696;2023-05-29T13:50:37;6.75;;;2.25;;
8857;SDS011;4465;50.904;4.696;2023-05-29T13:53:03;7.03;;;2.45;;
8857;SDS011;4465;50.904;4.696;2023-05-29T13:55:29;12.27;;;3.35;;
8857;SDS011;4465;50.904;4.696;2023-05-29T13:57:54;6.95;;;2.35;;
8857;SDS011;4465;50.904;4.696;2023-05-29T14:00:26;6.20;;;2.42;;
8857;SDS011;4465;50.904;4.696;2023-05-29T14:02:52;9.68;;;2.90;;
8857;SDS011;4465;50.904;4.696;2023-05-29T14:05:20;6.65;;;2.33;;
8857;SDS011;4465;50.904;4.696;2023-05-29T14:07:46;11.95;;;2.88;;
8857;SDS011;4465;50.904;4.696;2023-05-29T14:10:13;7.25;;;2.95;;
8857;SDS011;4465;50.904;4.696;2023-05-29T14:12:41;23.10;;;2.88;;
8857;SDS011;4465;50.904;4.696;2023-05-29T14:15:07;9.68;;;2.17;;
8857;SDS011;4465;50.904;4.696;2023-05-29T14:17:36;10.45;;;2.80;;
8857;SDS011;4465;50.904;4.696;2023-05-29T14:20:02;11.10;;;2.28;;
8857;SDS011;4465;50.904;4.696;2023-05-29T14:22:30;10.90;;;3.00;;
8857;SDS011;4465;50.904;4.696;2023-05-29T14:24:58;12.07;;;3.38;;
8857;SDS011;4465;50.904;4.696;2023-05-29T14:27:29;9.75;;;2.50;;
8857;SDS011;4465;50.904;4.696;2023-05-29T14:29:55;11.73;;;3.00;;
8857;SDS011;4465;50.904;4.696;2023-05-29T14:32:21;9.60;;;2.65;;
8857;SDS011;4465;50.904;4.696;2023-05-29T14:34:47;10.93;;;3.00;;
8857;SDS011;4465;50.904;4.696;2023-05-29T14:37:13;10.13;;;2.40;;
8857;SDS011;4465;50.904;4.696;2023-05-29T14:39:44;8.35;;;2.58;;
8857;SDS011;4465;50.904;4.696;2023-05-29T14:42:10;7.50;;;2.47;;
8857;SDS011;4465;50.904;4.696;2023-05-29T14:44:36;10.05;;;2.90;;
8857;SDS011;4465;50.904;4.696;2023-05-29T14:47:04;8.27;;;2.67;;
8857;SDS011;4465;50.904;4.696;2023-05-29T14:49:32;9.68;;;2.72;;
8857;SDS011;4465;50.904;4.696;2023-05-29T14:51:59;8.30;;;2.45;;
8857;SDS011;4465;50.904;4.696;2023-05-29T14:54:27;9.80;;;3.15;;
8857;SDS011;4465;50.904;4.696;2023-05-29T14:56:53;6.25;;;2.50;;
8857;SDS011;4465;50.904;4.696;2023-05-29T14:59:21;7.32;;;2.30;;
8857;SDS011;4465;50.904;4.696;2023-05-29T15:01:48;9.30;;;2.60;;
8857;SDS011;4465;50.904;4.696;2023-05-29T15:04:15;8.98;;;2.55;;
8857;SDS011;4465;50.904;4.696;2023-05-29T15:06:44;7.60;;;2.28;;
8857;SDS011;4465;50.904;4.696;2023-05-29T15:09:10;14.30;;;2.77;;
8857;SDS011;4465;50.904;4.696;2023-05-29T15:11:36;10.30;;;2.63;;
8857;SDS011;4465;50.904;4.696;2023-05-29T15:14:02;9.27;;;2.50;;
8857;SDS011;4465;50.904;4.696;2023-05-29T15:16:28;8.93;;;2.72;;
8857;SDS011;4465;50.904;4.696;2023-05-29T15:18:57;11.13;;;2.80;;
8857;SDS011;4465;50.904;4.696;2023-05-29T15:21:23;9.00;;;2.80;;
8857;SDS011;4465;50.904;4.696;2023-05-29T15:23:49;9.40;;;2.45;;
8857;SDS011;4465;50.904;4.696;2023-05-29T15:26:15;12.00;;;2.50;;
8857;SDS011;4465;50.904;4.696;2023-05-29T15:28:41;12.13;;;2.30;;
8857;SDS011;4465;50.904;4.696;2023-05-29T15:31:07;10.30;;;2.42;;
8857;SDS011;4465;50.904;4.696;2023-05-29T15:33:35;8.50;;;2.20;;
8857;SDS011;4465;50.904;4.696;2023-05-29T15:36:01;13.05;;;2.35;;
8857;SDS011;4465;50.904;4.696;2023-05-29T15:38:27;14.13;;;3.38;;
8857;SDS011;4465;50.904;4.696;2023-05-29T15:40:57;9.60;;;2.30;;
8857;SDS011;4465;50.904;4.696;2023-05-29T15:43:26;10.63;;;2.72;;
8857;SDS011;4465;50.904;4.696;2023-05-29T15:45:55;8.52;;;2.22;;